sensor_id;sensor_type;location;lat;lon;timestamp;pressure;altitude;pressure_sealevel;temperature
20736;BMP180;10528;52.124;5.196;2023-07-31T00:00:15;100850.00;;;23.40
20736;BMP180;10528;52.124;5.196;2023-07-31T00:02:42;100839.00;;;23.40
20736;BMP180;10528;52.124;5.196;2023-07-31T00:05:09;100846.00;;;23.40
20736;BMP180;10528;52.124;5.196;2023-07-31T00:07:36;100839.00;;;23.40
20736;BMP180;10528;52.124;5.196;2023-07-31T00:10:03;100843.00;;;23.40
20736;BMP180;10528;52.124;5.196;2023-07-31T00:12:30;100839.00;;;23.40
20736;BMP180;10528;52.124;5.196;2023-07-31T00:14:57;100832.00;;;23.40
20736;BMP180;10528;52.124;5.196;2023-07-31T00:17:25;100824.00;;;23.40
20736;BMP180;10528;52.124;5.196;2023-07-31T00:19:51;100823.00;;;23.50
20736;BMP180;10528;52.124;5.196;2023-07-31T00:22:18;100826.00;;;23.50
20736;BMP180;10528;52.124;5.196;2023-07-31T00:24:45;100824.00;;;23.50
20736;BMP180;10528;52.124;5.196;2023-07-31T00:27:12;100826.00;;;23.50
20736;BMP180;10528;52.124;5.196;2023-07-31T00:29:39;100823.00;;;23.50
20736;BMP180;10528;52.124;5.196;2023-07-31T00:32:07;100820.00;;;23.50
20736;BMP180;10528;52.124;5.196;2023-07-31T00:34:34;100819.00;;;23.50
20736;BMP180;10528;52.124;5.196;2023-07-31T00:37:02;100817.00;;;23.60
20736;BMP180;10528;52.124;5.196;2023-07-31T00:39:30;100819.00;;;23.60
20736;BMP180;10528;52.124;5.196;2023-07-31T00:41:59;100816.00;;;23.60
20736;BMP180;10528;52.124;5.196;2023-07-31T00:44:26;100823.00;;;23.60
20736;BMP180;10528;52.124;5.196;2023-07-31T00:46:54;100826.00;;;23.60
20736;BMP180;10528;52.124;5.196;2023-07-31T00:49:23;100815.00;;;23.60
20736;BMP180;10528;52.124;5.196;2023-07-31T00:51:50;100818.00;;;23.60
20736;BMP180;10528;52.124;5.196;2023-07-31T00:54:17;100819.00;;;23.60
20736;BMP180;10528;52.124;5.196;2023-07-31T00:56:47;100818.00;;;23.60
20736;BMP180;10528;52.124;5.196;2023-07-31T00:59:15;100823.00;;;23.60
20736;BMP180;10528;52.124;5.196;2023-07-31T01:01:42;100826.00;;;23.60
20736;BMP180;10528;52.124;5.196;2023-07-31T01:04:09;100827.00;;;23.50
20736;BMP180;10528;52.124;5.196;2023-07-31T01:07:07;100821.00;;;23.50
20736;BMP180;10528;52.124;5.196;2023-07-31T01:09:45;100817.00;;;23.50
20736;BMP180;10528;52.124;5.196;2023-07-31T01:12:16;100821.00;;;23.50
20736;BMP180;10528;52.124;5.196;2023-07-31T01:15:06;100806.00;;;23.40
20736;BMP180;10528;52.124;5.196;2023-07-31T01:17:33;100814.00;;;23.40
20736;BMP180;10528;52.124;5.196;2023-07-31T01:20:05;100802.00;;;23.50
20736;BMP180;10528;52.124;5.196;2023-07-31T01:25:54;100801.00;;;23.40
20736;BMP180;10528;52.124;5.196;2023-07-31T01:28:55;100809.00;;;23.40
20736;BMP180;10528;52.124;5.196;2023-07-31T01:31:25;100805.00;;;23.50
20736;BMP180;10528;52.124;5.196;2023-07-31T01:33:56;100802.00;;;23.50
20736;BMP180;10528;52.124;5.196;2023-07-31T01:36:25;100803.00;;;23.50
20736;BMP180;10528;52.124;5.196;2023-07-31T01:38:52;100809.00;;;23.60
20736;BMP180;10528;52.124;5.196;2023-07-31T01:41:19;100813.00;;;23.50
20736;BMP180;10528;52.124;5.196;2023-07-31T01:43:46;100812.00;;;23.50
20736;BMP180;10528;52.124;5.196;2023-07-31T01:46:13;100816.00;;;23.50
20736;BMP180;10528;52.124;5.196;2023-07-31T01:48:40;100808.00;;;23.50
20736;BMP180;10528;52.124;5.196;2023-07-31T01:51:07;100807.00;;;23.50
20736;BMP180;10528;52.124;5.196;2023-07-31T01:53:35;100802.00;;;23.50
20736;BMP180;10528;52.124;5.196;2023-07-31T01:56:02;100800.00;;;23.50
20736;BMP180;10528;52.124;5.196;2023-07-31T01:58:30;100805.00;;;23.50
20736;BMP180;10528;52.124;5.196;2023-07-31T02:00:57;100791.00;;;23.50
20736;BMP180;10528;52.124;5.196;2023-07-31T02:03:23;100792.00;;;23.50
20736;BMP180;10528;52.124;5.196;2023-07-31T02:05:54;100787.00;;;23.50
20736;BMP180;10528;52.124;5.196;2023-07-31T02:08:21;100781.00;;;23.50
20736;BMP180;10528;52.124;5.196;2023-07-31T02:10:48;100770.00;;;23.50
20736;BMP180;10528;52.124;5.196;2023-07-31T02:13:15;100769.00;;;23.50
20736;BMP180;10528;52.124;5.196;2023-07-31T02:15:42;100757.00;;;23.40
20736;BMP180;10528;52.124;5.196;2023-07-31T02:18:09;100759.00;;;23.40
20736;BMP180;10528;52.124;5.196;2023-07-31T02:20:35;100750.00;;;23.40
20736;BMP180;10528;52.124;5.196;2023-07-31T02:23:02;100758.00;;;23.40
20736;BMP180;10528;52.124;5.196;2023-07-31T02:25:29;100759.00;;;23.40
20736;BMP180;10528;52.124;5.196;2023-07-31T02:27:56;100757.00;;;23.40
20736;BMP180;10528;52.124;5.196;2023-07-31T02:30:23;100748.00;;;23.40
20736;BMP180;10528;52.124;5.196;2023-07-31T02:32:50;100758.00;;;23.40
20736;BMP180;10528;52.124;5.196;2023-07-31T02:35:17;100754.00;;;23.40
20736;BMP180;10528;52.124;5.196;2023-07-31T02:37:46;100742.00;;;23.40
20736;BMP180;10528;52.124;5.196;2023-07-31T02:40:13;100752.00;;;23.50
20736;BMP180;10528;52.124;5.196;2023-07-31T02:42:40;100750.00;;;23.40
20736;BMP180;10528;52.124;5.196;2023-07-31T02:45:07;100748.00;;;23.50
20736;BMP180;10528;52.124;5.196;2023-07-31T02:47:35;100746.00;;;23.50
20736;BMP180;10528;52.124;5.196;2023-07-31T02:50:07;100744.00;;;23.50
20736;BMP180;10528;52.124;5.196;2023-07-31T02:52:34;100742.00;;;23.50
20736;BMP180;10528;52.124;5.196;2023-07-31T02:55:01;100735.00;;;23.50
20736;BMP180;10528;52.124;5.196;2023-07-31T02:57:28;100726.00;;;23.50
20736;BMP180;10528;52.124;5.196;2023-07-31T02:59:54;100736.00;;;23.50
20736;BMP180;10528;52.124;5.196;2023-07-31T03:02:21;100725.00;;;23.50
20736;BMP180;10528;52.124;5.196;2023-07-31T03:04:49;100724.00;;;23.50
20736;BMP180;10528;52.124;5.196;2023-07-31T03:07:16;100725.00;;;23.50
20736;BMP180;10528;52.124;5.196;2023-07-31T03:09:43;100721.00;;;23.50
20736;BMP180;10528;52.124;5.196;2023-07-31T03:12:09;100734.00;;;23.50
20736;BMP180;10528;52.124;5.196;2023-07-31T03:14:36;100736.00;;;23.50
20736;BMP180;10528;52.124;5.196;2023-07-31T03:17:03;100736.00;;;23.50
20736;BMP180;10528;52.124;5.196;2023-07-31T03:19:32;100722.00;;;23.50
20736;BMP180;10528;52.124;5.196;2023-07-31T03:22:02;100727.00;;;23.50
20736;BMP180;10528;52.124;5.196;2023-07-31T03:24:28;100731.00;;;23.40
20736;BMP180;10528;52.124;5.196;2023-07-31T03:26:56;100728.00;;;23.40
20736;BMP180;10528;52.124;5.196;2023-07-31T03:29:23;100737.00;;;23.50
20736;BMP180;10528;52.124;5.196;2023-07-31T03:31:51;100720.00;;;23.40
20736;BMP180;10528;52.124;5.196;2023-07-31T03:34:18;100728.00;;;23.40
20736;BMP180;10528;52.124;5.196;2023-07-31T03:36:45;100716.00;;;23.40
20736;BMP180;10528;52.124;5.196;2023-07-31T03:39:12;100718.00;;;23.40
20736;BMP180;10528;52.124;5.196;2023-07-31T03:41:40;100726.00;;;23.40
20736;BMP180;10528;52.124;5.196;2023-07-31T03:44:06;100723.00;;;23.40
20736;BMP180;10528;52.124;5.196;2023-07-31T03:46:34;100713.00;;;23.40
20736;BMP180;10528;52.124;5.196;2023-07-31T03:49:03;100709.00;;;23.40
20736;BMP180;10528;52.124;5.196;2023-07-31T03:51:30;100715.00;;;23.40
20736;BMP180;10528;52.124;5.196;2023-07-31T03:53:57;100706.00;;;23.40
20736;BMP180;10528;52.124;5.196;2023-07-31T03:56:24;100709.00;;;23.40
20736;BMP180;10528;52.124;5.196;2023-07-31T03:58:51;100719.00;;;23.40
20736;BMP180;10528;52.124;5.196;2023-07-31T04:01:19;100697.00;;;23.40
20736;BMP180;10528;52.124;5.196;2023-07-31T04:03:46;100704.00;;;23.40
20736;BMP180;10528;52.124;5.196;2023-07-31T04:06:13;100699.00;;;23.40
20736;BMP180;10528;52.124;5.196;2023-07-31T04:08:40;100699.00;;;23.40
20736;BMP180;10528;52.124;5.196;2023-07-31T04:11:08;100696.00;;;23.40
20736;BMP180;10528;52.124;5.196;2023-07-31T04:13:35;100693.00;;;23.40
20736;BMP180;10528;52.124;5.196;2023-07-31T04:16:02;100683.00;;;23.40
20736;BMP180;10528;52.124;5.196;2023-07-31T04:18:29;100674.00;;;23.40
20736;BMP180;10528;52.124;5.196;2023-07-31T04:20:58;100674.00;;;23.40
20736;BMP180;10528;52.124;5.196;2023-07-31T04:23:25;100672.00;;;23.40
20736;BMP180;10528;52.124;5.196;2023-07-31T04:25:52;100672.00;;;23.40
20736;BMP180;10528;52.124;5.196;2023-07-31T04:28:19;100673.00;;;23.40
20736;BMP180;10528;52.124;5.196;2023-07-31T04:30:46;100679.00;;;23.30
20736;BMP180;10528;52.124;5.196;2023-07-31T04:33:16;100683.00;;;23.40
20736;BMP180;10528;52.124;5.196;2023-07-31T04:35:52;100687.00;;;23.30
20736;BMP180;10528;52.124;5.196;2023-07-31T04:38:21;100686.00;;;23.30
20736;BMP180;10528;52.124;5.196;2023-07-31T04:40:48;100672.00;;;23.30
20736;BMP180;10528;52.124;5.196;2023-07-31T04:43:15;100682.00;;;23.30
20736;BMP180;10528;52.124;5.196;2023-07-31T04:45:46;100684.00;;;23.30
20736;BMP180;10528;52.124;5.196;2023-07-31T04:48:14;100674.00;;;23.30
20736;BMP180;10528;52.124;5.196;2023-07-31T04:50:42;100667.00;;;23.30
20736;BMP180;10528;52.124;5.196;2023-07-31T04:53:08;100662.00;;;23.30
20736;BMP180;10528;52.124;5.196;2023-07-31T04:55:35;100660.00;;;23.30
20736;BMP180;10528;52.124;5.196;2023-07-31T04:58:02;100663.00;;;23.20
20736;BMP180;10528;52.124;5.196;2023-07-31T05:00:29;100667.00;;;23.20
20736;BMP180;10528;52.124;5.196;2023-07-31T05:02:56;100655.00;;;23.20
20736;BMP180;10528;52.124;5.196;2023-07-31T05:05:24;100656.00;;;23.20
20736;BMP180;10528;52.124;5.196;2023-07-31T05:07:51;100655.00;;;23.20
20736;BMP180;10528;52.124;5.196;2023-07-31T05:10:18;100661.00;;;23.20
20736;BMP180;10528;52.124;5.196;2023-07-31T05:12:45;100655.00;;;23.20
20736;BMP180;10528;52.124;5.196;2023-07-31T05:15:11;100656.00;;;23.20
20736;BMP180;10528;52.124;5.196;2023-07-31T05:17:38;100647.00;;;23.20
20736;BMP180;10528;52.124;5.196;2023-07-31T05:20:06;100649.00;;;23.10
20736;BMP180;10528;52.124;5.196;2023-07-31T05:22:33;100648.00;;;23.10
20736;BMP180;10528;52.124;5.196;2023-07-31T05:25:00;100640.00;;;23.10
20736;BMP180;10528;52.124;5.196;2023-07-31T05:27:27;100637.00;;;23.10
20736;BMP180;10528;52.124;5.196;2023-07-31T05:29:54;100637.00;;;23.10
20736;BMP180;10528;52.124;5.196;2023-07-31T05:32:21;100634.00;;;23.10
20736;BMP180;10528;52.124;5.196;2023-07-31T05:34:51;100628.00;;;23.00
20736;BMP180;10528;52.124;5.196;2023-07-31T05:37:20;100631.00;;;23.10
20736;BMP180;10528;52.124;5.196;2023-07-31T05:39:47;100617.00;;;23.10
20736;BMP180;10528;52.124;5.196;2023-07-31T05:42:13;100616.00;;;23.10
20736;BMP180;10528;52.124;5.196;2023-07-31T05:44:40;100616.00;;;23.10
20736;BMP180;10528;52.124;5.196;2023-07-31T05:47:07;100617.00;;;23.10
20736;BMP180;10528;52.124;5.196;2023-07-31T05:49:34;100604.00;;;23.10
20736;BMP180;10528;52.124;5.196;2023-07-31T05:52:01;100595.00;;;23.10
20736;BMP180;10528;52.124;5.196;2023-07-31T05:54:28;100604.00;;;23.10
20736;BMP180;10528;52.124;5.196;2023-07-31T05:56:55;100607.00;;;23.10
20736;BMP180;10528;52.124;5.196;2023-07-31T05:59:22;100599.00;;;23.10
20736;BMP180;10528;52.124;5.196;2023-07-31T06:01:49;100593.00;;;23.10
20736;BMP180;10528;52.124;5.196;2023-07-31T06:04:16;100594.00;;;23.10
20736;BMP180;10528;52.124;5.196;2023-07-31T06:06:43;100598.00;;;23.10
20736;BMP180;10528;52.124;5.196;2023-07-31T06:09:10;100590.00;;;23.10
20736;BMP180;10528;52.124;5.196;2023-07-31T06:11:38;100595.00;;;23.10
20736;BMP180;10528;52.124;5.196;2023-07-31T06:14:05;100588.00;;;23.10
20736;BMP180;10528;52.124;5.196;2023-07-31T06:16:32;100578.00;;;23.10
20736;BMP180;10528;52.124;5.196;2023-07-31T06:18:59;100580.00;;;23.10
20736;BMP180;10528;52.124;5.196;2023-07-31T06:21:26;100575.00;;;23.10
20736;BMP180;10528;52.124;5.196;2023-07-31T06:23:53;100571.00;;;23.10
20736;BMP180;10528;52.124;5.196;2023-07-31T06:26:20;100572.00;;;22.90
20736;BMP180;10528;52.124;5.196;2023-07-31T06:28:47;100567.00;;;23.10
20736;BMP180;10528;52.124;5.196;2023-07-31T06:31:14;100577.00;;;23.10
20736;BMP180;10528;52.124;5.196;2023-07-31T06:33:41;100572.00;;;23.20
20736;BMP180;10528;52.124;5.196;2023-07-31T06:36:08;100574.00;;;23.20
20736;BMP180;10528;52.124;5.196;2023-07-31T06:38:35;100573.00;;;23.20
20736;BMP180;10528;52.124;5.196;2023-07-31T06:41:04;100562.00;;;23.20
20736;BMP180;10528;52.124;5.196;2023-07-31T06:43:31;100553.00;;;23.20
20736;BMP180;10528;52.124;5.196;2023-07-31T06:46:04;100563.00;;;23.20
20736;BMP180;10528;52.124;5.196;2023-07-31T06:48:31;100558.00;;;23.20
20736;BMP180;10528;52.124;5.196;2023-07-31T06:50:58;100549.00;;;23.30
20736;BMP180;10528;52.124;5.196;2023-07-31T06:53:25;100551.00;;;23.30
20736;BMP180;10528;52.124;5.196;2023-07-31T06:55:52;100548.00;;;23.30
20736;BMP180;10528;52.124;5.196;2023-07-31T06:58:19;100542.00;;;23.30
20736;BMP180;10528;52.124;5.196;2023-07-31T07:00:46;100542.00;;;23.30
20736;BMP180;10528;52.124;5.196;2023-07-31T07:03:19;100538.00;;;23.30
20736;BMP180;10528;52.124;5.196;2023-07-31T07:05:47;100547.00;;;23.30
20736;BMP180;10528;52.124;5.196;2023-07-31T07:08:14;100546.00;;;23.40
20736;BMP180;10528;52.124;5.196;2023-07-31T07:10:41;100531.00;;;23.40
20736;BMP180;10528;52.124;5.196;2023-07-31T07:13:09;100538.00;;;23.40
20736;BMP180;10528;52.124;5.196;2023-07-31T07:15:36;100538.00;;;23.40
20736;BMP180;10528;52.124;5.196;2023-07-31T07:18:03;100542.00;;;23.40
20736;BMP180;10528;52.124;5.196;2023-07-31T07:20:30;100535.00;;;23.40
20736;BMP180;10528;52.124;5.196;2023-07-31T07:22:57;100534.00;;;23.40
20736;BMP180;10528;52.124;5.196;2023-07-31T07:25:24;100539.00;;;23.40
20736;BMP180;10528;52.124;5.196;2023-07-31T07:27:51;100539.00;;;23.50
20736;BMP180;10528;52.124;5.196;2023-07-31T07:30:18;100532.00;;;23.50
20736;BMP180;10528;52.124;5.196;2023-07-31T07:32:46;100542.00;;;23.40
20736;BMP180;10528;52.124;5.196;2023-07-31T07:35:14;100540.00;;;23.40
20736;BMP180;10528;52.124;5.196;2023-07-31T07:37:41;100543.00;;;23.40
20736;BMP180;10528;52.124;5.196;2023-07-31T07:40:08;100537.00;;;23.40
20736;BMP180;10528;52.124;5.196;2023-07-31T07:42:35;100533.00;;;23.50
20736;BMP180;10528;52.124;5.196;2023-07-31T07:45:03;100525.00;;;23.40
20736;BMP180;10528;52.124;5.196;2023-07-31T07:47:30;100537.00;;;23.50
20736;BMP180;10528;52.124;5.196;2023-07-31T07:49:57;100530.00;;;23.50
20736;BMP180;10528;52.124;5.196;2023-07-31T07:52:23;100520.00;;;23.60
20736;BMP180;10528;52.124;5.196;2023-07-31T07:54:51;100533.00;;;23.50
20736;BMP180;10528;52.124;5.196;2023-07-31T07:57:17;100527.00;;;23.60
20736;BMP180;10528;52.124;5.196;2023-07-31T07:59:45;100525.00;;;23.60
20736;BMP180;10528;52.124;5.196;2023-07-31T08:02:12;100527.00;;;23.60
20736;BMP180;10528;52.124;5.196;2023-07-31T08:04:39;100522.00;;;23.60
20736;BMP180;10528;52.124;5.196;2023-07-31T08:07:06;100514.00;;;23.60
20736;BMP180;10528;52.124;5.196;2023-07-31T08:09:33;100520.00;;;23.60
20736;BMP180;10528;52.124;5.196;2023-07-31T08:12:00;100511.00;;;23.60
20736;BMP180;10528;52.124;5.196;2023-07-31T08:14:30;100515.00;;;23.50
20736;BMP180;10528;52.124;5.196;2023-07-31T08:17:00;100502.00;;;23.60
20736;BMP180;10528;52.124;5.196;2023-07-31T08:19:27;100508.00;;;23.70
20736;BMP180;10528;52.124;5.196;2023-07-31T08:21:54;100502.00;;;23.70
20736;BMP180;10528;52.124;5.196;2023-07-31T08:24:24;100497.00;;;23.80
20736;BMP180;10528;52.124;5.196;2023-07-31T08:26:51;100501.00;;;23.70
20736;BMP180;10528;52.124;5.196;2023-07-31T08:29:18;100517.00;;;23.80
20736;BMP180;10528;52.124;5.196;2023-07-31T08:31:45;100496.00;;;23.80
20736;BMP180;10528;52.124;5.196;2023-07-31T08:34:12;100498.00;;;23.70
20736;BMP180;10528;52.124;5.196;2023-07-31T08:36:39;100499.00;;;23.90
20736;BMP180;10528;52.124;5.196;2023-07-31T08:39:06;100502.00;;;24.00
20736;BMP180;10528;52.124;5.196;2023-07-31T08:41:38;100498.00;;;24.00
20736;BMP180;10528;52.124;5.196;2023-07-31T08:44:07;100506.00;;;24.10
20736;BMP180;10528;52.124;5.196;2023-07-31T08:46:35;100494.00;;;24.10
20736;BMP180;10528;52.124;5.196;2023-07-31T08:49:05;100508.00;;;24.10
20736;BMP180;10528;52.124;5.196;2023-07-31T08:51:36;100485.00;;;24.20
20736;BMP180;10528;52.124;5.196;2023-07-31T08:54:03;100495.00;;;24.10
20736;BMP180;10528;52.124;5.196;2023-07-31T08:56:33;100496.00;;;24.20
20736;BMP180;10528;52.124;5.196;2023-07-31T08:59:03;100499.00;;;24.20
20736;BMP180;10528;52.124;5.196;2023-07-31T09:01:37;100497.00;;;24.10
20736;BMP180;10528;52.124;5.196;2023-07-31T09:04:08;100496.00;;;24.20
20736;BMP180;10528;52.124;5.196;2023-07-31T09:06:37;100502.00;;;24.20
20736;BMP180;10528;52.124;5.196;2023-07-31T09:09:05;100502.00;;;24.20
20736;BMP180;10528;52.124;5.196;2023-07-31T09:11:32;100496.00;;;24.20
20736;BMP180;10528;52.124;5.196;2023-07-31T09:14:01;100498.00;;;24.20
20736;BMP180;10528;52.124;5.196;2023-07-31T09:16:35;100495.00;;;24.10
20736;BMP180;10528;52.124;5.196;2023-07-31T09:19:02;100494.00;;;24.20
20736;BMP180;10528;52.124;5.196;2023-07-31T09:21:30;100490.00;;;24.30
20736;BMP180;10528;52.124;5.196;2023-07-31T09:23:57;100492.00;;;24.30
20736;BMP180;10528;52.124;5.196;2023-07-31T09:26:35;100492.00;;;24.30
20736;BMP180;10528;52.124;5.196;2023-07-31T09:29:18;100482.00;;;24.40
20736;BMP180;10528;52.124;5.196;2023-07-31T09:31:46;100471.00;;;24.40
20736;BMP180;10528;52.124;5.196;2023-07-31T09:34:13;100480.00;;;24.40
20736;BMP180;10528;52.124;5.196;2023-07-31T09:36:50;100488.00;;;24.40
20736;BMP180;10528;52.124;5.196;2023-07-31T09:39:20;100490.00;;;24.50
20736;BMP180;10528;52.124;5.196;2023-07-31T09:41:54;100484.00;;;24.50
20736;BMP180;10528;52.124;5.196;2023-07-31T09:44:21;100488.00;;;24.50
20736;BMP180;10528;52.124;5.196;2023-07-31T09:46:49;100481.00;;;24.60
20736;BMP180;10528;52.124;5.196;2023-07-31T09:49:16;100474.00;;;24.60
20736;BMP180;10528;52.124;5.196;2023-07-31T09:51:43;100479.00;;;24.70
20736;BMP180;10528;52.124;5.196;2023-07-31T09:54:15;100475.00;;;24.70
20736;BMP180;10528;52.124;5.196;2023-07-31T09:56:44;100481.00;;;24.70
20736;BMP180;10528;52.124;5.196;2023-07-31T09:59:17;100484.00;;;24.80
20736;BMP180;10528;52.124;5.196;2023-07-31T10:01:50;100481.00;;;24.80
20736;BMP180;10528;52.124;5.196;2023-07-31T10:04:18;100484.00;;;24.90
20736;BMP180;10528;52.124;5.196;2023-07-31T10:06:50;100483.00;;;24.90
20736;BMP180;10528;52.124;5.196;2023-07-31T10:09:21;100476.00;;;24.90
20736;BMP180;10528;52.124;5.196;2023-07-31T10:12:00;100480.00;;;24.90
20736;BMP180;10528;52.124;5.196;2023-07-31T10:14:30;100479.00;;;25.00
20736;BMP180;10528;52.124;5.196;2023-07-31T10:16:58;100487.00;;;25.00
20736;BMP180;10528;52.124;5.196;2023-07-31T10:19:27;100486.00;;;25.00
20736;BMP180;10528;52.124;5.196;2023-07-31T10:21:57;100481.00;;;25.00
20736;BMP180;10528;52.124;5.196;2023-07-31T10:24:26;100482.00;;;24.90
20736;BMP180;10528;52.124;5.196;2023-07-31T10:26:59;100482.00;;;24.90
20736;BMP180;10528;52.124;5.196;2023-07-31T10:29:28;100483.00;;;24.90
20736;BMP180;10528;52.124;5.196;2023-07-31T10:31:58;100478.00;;;24.90
20736;BMP180;10528;52.124;5.196;2023-07-31T10:34:26;100478.00;;;24.90
20736;BMP180;10528;52.124;5.196;2023-07-31T10:37:23;100474.00;;;24.90
20736;BMP180;10528;52.124;5.196;2023-07-31T10:42:30;100470.00;;;24.80
20736;BMP180;10528;52.124;5.196;2023-07-31T10:44:59;100473.00;;;24.80
20736;BMP180;10528;52.124;5.196;2023-07-31T10:47:27;100472.00;;;24.80
20736;BMP180;10528;52.124;5.196;2023-07-31T10:50:22;100497.00;;;24.80
20736;BMP180;10528;52.124;5.196;2023-07-31T10:52:56;100474.00;;;24.80
20736;BMP180;10528;52.124;5.196;2023-07-31T10:55:32;100483.00;;;24.70
20736;BMP180;10528;52.124;5.196;2023-07-31T11:00:37;100469.00;;;24.80
20736;BMP180;10528;52.124;5.196;2023-07-31T11:03:12;100479.00;;;24.80
20736;BMP180;10528;52.124;5.196;2023-07-31T11:05:55;100483.00;;;24.80
20736;BMP180;10528;52.124;5.196;2023-07-31T11:13:54;100491.00;;;24.80
20736;BMP180;10528;52.124;5.196;2023-07-31T11:16:25;100487.00;;;24.80
20736;BMP180;10528;52.124;5.196;2023-07-31T11:18:53;100487.00;;;24.80
20736;BMP180;10528;52.124;5.196;2023-07-31T11:21:24;100478.00;;;24.80
20736;BMP180;10528;52.124;5.196;2023-07-31T11:23:56;100476.00;;;24.90
20736;BMP180;10528;52.124;5.196;2023-07-31T11:26:27;100473.00;;;24.90
20736;BMP180;10528;52.124;5.196;2023-07-31T11:28:54;100481.00;;;24.90
20736;BMP180;10528;52.124;5.196;2023-07-31T11:31:21;100468.00;;;24.90
20736;BMP180;10528;52.124;5.196;2023-07-31T11:33:49;100476.00;;;25.00
20736;BMP180;10528;52.124;5.196;2023-07-31T11:36:18;100466.00;;;24.90
20736;BMP180;10528;52.124;5.196;2023-07-31T11:38:46;100460.00;;;24.90
20736;BMP180;10528;52.124;5.196;2023-07-31T11:41:16;100461.00;;;24.90
20736;BMP180;10528;52.124;5.196;2023-07-31T11:43:48;100462.00;;;24.90
20736;BMP180;10528;52.124;5.196;2023-07-31T11:46:15;100462.00;;;24.90
20736;BMP180;10528;52.124;5.196;2023-07-31T11:48:43;100461.00;;;24.90
20736;BMP180;10528;52.124;5.196;2023-07-31T11:51:13;100467.00;;;24.90
20736;BMP180;10528;52.124;5.196;2023-07-31T11:53:51;100454.00;;;24.90
20736;BMP180;10528;52.124;5.196;2023-07-31T11:56:20;100454.00;;;24.80
20736;BMP180;10528;52.124;5.196;2023-07-31T11:58:53;100461.00;;;24.80
20736;BMP180;10528;52.124;5.196;2023-07-31T12:01:22;100460.00;;;24.90
20736;BMP180;10528;52.124;5.196;2023-07-31T12:03:52;100458.00;;;24.80
20736;BMP180;10528;52.124;5.196;2023-07-31T12:06:19;100465.00;;;24.90
20736;BMP180;10528;52.124;5.196;2023-07-31T12:08:48;100472.00;;;24.80
20736;BMP180;10528;52.124;5.196;2023-07-31T12:11:15;100473.00;;;24.80
20736;BMP180;10528;52.124;5.196;2023-07-31T12:13:44;100467.00;;;24.80
20736;BMP180;10528;52.124;5.196;2023-07-31T12:16:11;100473.00;;;24.80
20736;BMP180;10528;52.124;5.196;2023-07-31T12:18:39;100455.00;;;24.80
20736;BMP180;10528;52.124;5.196;2023-07-31T12:21:08;100467.00;;;24.80
20736;BMP180;10528;52.124;5.196;2023-07-31T12:23:37;100455.00;;;24.80
20736;BMP180;10528;52.124;5.196;2023-07-31T12:26:11;100454.00;;;24.80
20736;BMP180;10528;52.124;5.196;2023-07-31T12:28:49;100433.00;;;24.80
20736;BMP180;10528;52.124;5.196;2023-07-31T12:31:20;100433.00;;;24.80
20736;BMP180;10528;52.124;5.196;2023-07-31T12:33:50;100437.00;;;24.90
20736;BMP180;10528;52.124;5.196;2023-07-31T12:36:23;100428.00;;;24.90
20736;BMP180;10528;52.124;5.196;2023-07-31T12:38:52;100434.00;;;24.90
20736;BMP180;10528;52.124;5.196;2023-07-31T12:41:19;100435.00;;;24.90
20736;BMP180;10528;52.124;5.196;2023-07-31T12:43:46;100428.00;;;24.90
20736;BMP180;10528;52.124;5.196;2023-07-31T12:46:13;100437.00;;;25.00
20736;BMP180;10528;52.124;5.196;2023-07-31T12:48:41;100429.00;;;25.00
20736;BMP180;10528;52.124;5.196;2023-07-31T12:51:08;100419.00;;;25.00
20736;BMP180;10528;52.124;5.196;2023-07-31T12:53:35;100419.00;;;25.00
20736;BMP180;10528;52.124;5.196;2023-07-31T12:56:03;100420.00;;;25.10
20736;BMP180;10528;52.124;5.196;2023-07-31T12:58:30;100418.00;;;25.10
20736;BMP180;10528;52.124;5.196;2023-07-31T13:00:58;100416.00;;;25.20
20736;BMP180;10528;52.124;5.196;2023-07-31T13:03:25;100416.00;;;25.20
20736;BMP180;10528;52.124;5.196;2023-07-31T13:05:53;100423.00;;;25.30
20736;BMP180;10528;52.124;5.196;2023-07-31T13:08:21;100430.00;;;25.30
20736;BMP180;10528;52.124;5.196;2023-07-31T13:10:49;100422.00;;;25.40
20736;BMP180;10528;52.124;5.196;2023-07-31T13:13:17;100409.00;;;25.30
20736;BMP180;10528;52.124;5.196;2023-07-31T13:15:44;100414.00;;;25.40
20736;BMP180;10528;52.124;5.196;2023-07-31T13:18:13;100414.00;;;25.40
20736;BMP180;10528;52.124;5.196;2023-07-31T13:20:40;100405.00;;;25.50
20736;BMP180;10528;52.124;5.196;2023-07-31T13:23:07;100407.00;;;25.50
20736;BMP180;10528;52.124;5.196;2023-07-31T13:25:34;100397.00;;;25.50
20736;BMP180;10528;52.124;5.196;2023-07-31T13:28:01;100391.00;;;25.50
20736;BMP180;10528;52.124;5.196;2023-07-31T13:30:29;100390.00;;;25.50
20736;BMP180;10528;52.124;5.196;2023-07-31T13:32:56;100386.00;;;25.50
20736;BMP180;10528;52.124;5.196;2023-07-31T13:35:23;100376.00;;;25.50
20736;BMP180;10528;52.124;5.196;2023-07-31T13:37:50;100388.00;;;25.50
20736;BMP180;10528;52.124;5.196;2023-07-31T13:40:17;100391.00;;;25.50
20736;BMP180;10528;52.124;5.196;2023-07-31T13:42:44;100390.00;;;25.50
20736;BMP180;10528;52.124;5.196;2023-07-31T13:45:12;100389.00;;;25.50
20736;BMP180;10528;52.124;5.196;2023-07-31T13:47:39;100376.00;;;25.50
20736;BMP180;10528;52.124;5.196;2023-07-31T13:50:07;100385.00;;;25.50
20736;BMP180;10528;52.124;5.196;2023-07-31T13:52:34;100383.00;;;25.50
20736;BMP180;10528;52.124;5.196;2023-07-31T13:55:01;100375.00;;;25.50
20736;BMP180;10528;52.124;5.196;2023-07-31T13:57:28;100375.00;;;25.50
20736;BMP180;10528;52.124;5.196;2023-07-31T13:59:55;100380.00;;;25.50
20736;BMP180;10528;52.124;5.196;2023-07-31T14:02:22;100380.00;;;25.50
20736;BMP180;10528;52.124;5.196;2023-07-31T14:04:49;100374.00;;;25.40
20736;BMP180;10528;52.124;5.196;2023-07-31T14:07:16;100378.00;;;25.40
20736;BMP180;10528;52.124;5.196;2023-07-31T14:09:44;100386.00;;;25.40
20736;BMP180;10528;52.124;5.196;2023-07-31T14:12:11;100385.00;;;25.40
20736;BMP180;10528;52.124;5.196;2023-07-31T14:14:38;100379.00;;;25.30
20736;BMP180;10528;52.124;5.196;2023-07-31T14:17:05;100369.00;;;25.30